Terminal Aerodrome Forecast
Issued by NWS

Home | Current Version | Previous Version | Text Only | Print | Product List | Glossary On
Versions: 1 2 3 4 5 6 7 8 9 10 11 12 13 14 15 16 17 18 19 20 21 22 23 24 25 26
000
FTUS43 KILX 280500
TAFBMI
TAF
KBMI 280529Z 2806/2906 12005KT P6SM BKN015
     FM280700 12005KT 4SM BR SCT250
     FM281300 15012KT P6SM SCT250
     FM281600 15016G26KT P6SM BKN250
     FM290000 15016G26KT P6SM BKN080=

USA.gov is the U.S. government's official web portal to all federal, state and local government web resources and services.